^^

..:: Storico WU ::..




Lo storico viene creato da WUnderground con i dati che la stazione Meteomincio invia al loro server. L' aggiornamento viene fatto ogni 5 minuti circa, tuttavia possono esserci intervalli pi¨ ampi a causa di errori, interruzioni di servizio o problemi nell' invio tramite FTP.


Storico stazione MeteoMincio
Giorno Sommario per Aprile 17, 2022 Unità:  Inglese    Metrico   Entrambi
Giorno Settimana Mese Anno
  Max: Min: Media:
Temperatura: 63.1 °F 45.1 °F 54.5 °F
Dew Point: 45.9 °F 32.9 °F 37.9 °F
Umidità: 78.3% 37.1% 55%
Velocità vento: 13mph 0mph 5.5mph
Raffica: 20mph - -
Direzione- - East
Pressione: 30.2 in 30 in -
Precipitazioni: 0 in    
 
 
Tabulato Dati per Aprile 17, 2022
Ora Temperatura Dew Point Pressione Direzione Velocità vento Raffica Umidità Intensità pioggia (oraria) Info solare Situazione
00:04 54.7 °F 45.9 °F 30.1 in ENE 6.5 mph 11.5 mph 72% 0 in 0 W/m2
00:09 54.5 °F 45.7 °F 30.1 in ENE 5.2 mph 12 mph 72% 0 in 0 W/m2
00:14 54.3 °F 45.7 °F 30.2 in ENE 4.5 mph 9.2 mph 72.8% 0 in 0 W/m2
00:19 54.1 °F 45.7 °F 30.2 in ENE 4.9 mph 9 mph 73% 0 in 0 W/m2
00:24 54 °F 45.3 °F 30.2 in ENE 5 mph 8.1 mph 72.4% 0 in 0 W/m2
00:29 53.8 °F 45.1 °F 30.2 in ENE 4.1 mph 8 mph 72% 0 in 0 W/m2
00:34 53.6 °F 44.8 °F 30.2 in ENE 4.1 mph 7 mph 72% 0 in 0 W/m2
00:39 53.4 °F 44.6 °F 30.2 in ENE 3.2 mph 7 mph 72% 0 in 0 W/m2
00:44 53.2 °F 44.4 °F 30.2 in ENE 3.6 mph 8.1 mph 72% 0 in 0 W/m2
00:49 53.2 °F 44.4 °F 30.2 in ENE 4.9 mph 9 mph 72% 0 in 0 W/m2
00:54 53.2 °F 44.4 °F 30.2 in ENE 6.3 mph 10 mph 72% 0 in 0 W/m2
00:59 53.1 °F 44.2 °F 30.2 in ENE 7.5 mph 11.5 mph 72% 0 in 0 W/m2
01:04 53.1 °F 44.2 °F 30.2 in ENE 7 mph 13 mph 72% 0 in 0 W/m2
01:09 53.2 °F 44.4 °F 30.2 in ENE 7.5 mph 14 mph 72% 0 in 0 W/m2
01:14 53.2 °F 44.4 °F 30.2 in ENE 6.4 mph 14 mph 72% 0 in 0 W/m2
01:19 53.1 °F 44.2 °F 30.2 in ENE 7.9 mph 14 mph 72% 0 in 0 W/m2
01:24 53.1 °F 44.2 °F 30.2 in ENE 7.3 mph 14 mph 72% 0 in 0 W/m2
01:29 53.1 °F 44.2 °F 30.2 in ENE 7.8 mph 11.5 mph 72% 0 in 0 W/m2
01:34 52.7 °F 44.2 °F 30.2 in East 7.5 mph 12 mph 72.6% 0 in 0 W/m2
01:39 52.5 °F 44.2 °F 30.2 in ENE 6.7 mph 10.4 mph 73% 0 in 0 W/m2
01:44 52.3 °F 44.1 °F 30.2 in ENE 6.9 mph 10.4 mph 73% 0 in 0 W/m2
01:49 52.2 °F 44.1 °F 30.2 in ENE 7 mph 12 mph 73.5% 0 in 0 W/m2
01:54 52.2 °F 43.9 °F 30.2 in ENE 7.2 mph 12 mph 73.2% 0 in 0 W/m2
01:59 52 °F 43.7 °F 30.2 in ENE 6.8 mph 10.4 mph 73.4% 0 in 0 W/m2
02:04 52 °F 43.5 °F 30.2 in East 6.4 mph 10.4 mph 73% 0 in 0 W/m2
02:09 52 °F 43.5 °F 30.2 in East 6.5 mph 10.4 mph 73% 0 in 0 W/m2
02:14 52 °F 43.5 °F 30.2 in ENE 6.8 mph 13 mph 73% 0 in 0 W/m2
02:19 52 °F 43.5 °F 30.2 in ENE 7.5 mph 14 mph 73% 0 in 0 W/m2
02:24 51.8 °F 43.3 °F 30.2 in ENE 8.1 mph 14 mph 73% 0 in 0 W/m2
02:29 51.8 °F 43.2 °F 30.2 in ENE 8.2 mph 13 mph 72.2% 0 in 0 W/m2
02:34 51.8 °F 42.8 °F 30.2 in East 8.4 mph 14 mph 71.2% 0 in 0 W/m2
02:39 51.8 °F 42.6 °F 30.2 in East 9.2 mph 16.1 mph 71% 0 in 0 W/m2
02:44 51.8 °F 42.4 °F 30.2 in East 8.4 mph 17.3 mph 70.3% 0 in 0 W/m2
02:49 51.8 °F 41.9 °F 30.2 in East 9.4 mph 17 mph 69% 0 in 0 W/m2
02:54 51.8 °F 41.7 °F 30.2 in ENE 8.8 mph 14 mph 68.5% 0 in 0 W/m2
02:59 51.8 °F 41.5 °F 30.2 in East 9.4 mph 16.1 mph 67.8% 0 in 0 W/m2
03:04 51.8 °F 41 °F 30.2 in East 10.7 mph 17.3 mph 66.6% 0 in 0 W/m2
03:09 52 °F 41 °F 30.2 in East 9.6 mph 17 mph 66% 0 in 0 W/m2
03:14 52 °F 41 °F 30.2 in East 11.2 mph 18.4 mph 66% 0 in 0 W/m2
03:19 52 °F 40.8 °F 30.2 in East 11.6 mph 20 mph 65.6% 0 in 0 W/m2
03:24 52 °F 40.6 °F 30.2 in East 10.7 mph 20 mph 65% 0 in 0 W/m2
03:29 52 °F 40.6 °F 30.2 in East 8.4 mph 18 mph 65% 0 in 0 W/m2
03:34 51.6 °F 40.5 °F 30.2 in East 6.9 mph 16 mph 65.6% 0 in 0 W/m2
03:39 51.6 °F 40.3 °F 30.2 in East 10.7 mph 18.4 mph 65.3% 0 in 0 W/m2
03:44 51.8 °F 40.1 °F 30.2 in ESE 11.1 mph 19.6 mph 64.3% 0 in 0 W/m2
03:49 51.8 °F 39.9 °F 30.2 in East 10.1 mph 20 mph 64% 0 in 0 W/m2
03:54 51.6 °F 40.1 °F 30.2 in East 10 mph 18.4 mph 64.5% 0 in 0 W/m2
03:59 51.4 °F 40.1 °F 30.2 in ESE 10.1 mph 18 mph 65% 0 in 0 W/m2
04:04 51.3 °F 40.3 °F 30.2 in ESE 8.8 mph 15 mph 66% 0 in 0 W/m2
04:09 51.1 °F 40.1 °F 30.2 in ESE 8.4 mph 14 mph 66% 0 in 0 W/m2
04:14 50.9 °F 39.9 °F 30.2 in East 8.7 mph 17.3 mph 66% 0 in 0 W/m2
04:19 50.9 °F 39.9 °F 30.2 in ESE 8.5 mph 17 mph 66% 0 in 0 W/m2
04:24 50.7 °F 39.7 °F 30.2 in East 9.8 mph 16.1 mph 66% 0 in 0 W/m2
04:29 50.7 °F 39.7 °F 30.2 in ESE 8.9 mph 17.3 mph 66% 0 in 0 W/m2
04:34 50.7 °F 39.6 °F 30.2 in ESE 10.4 mph 17 mph 65.8% 0 in 0 W/m2
04:39 50.5 °F 39.6 °F 30.2 in ESE 8.8 mph 16 mph 65.8% 0 in 0 W/m2
04:44 50.5 °F 39.6 °F 30.2 in ESE 8.7 mph 16 mph 66% 0 in 0 W/m2
04:49 50.4 °F 39.6 °F 30.2 in ESE 7.6 mph 16.1 mph 66.4% 0 in 0 W/m2
04:54 50.2 °F 39.6 °F 30.2 in East 7.1 mph 14 mph 67% 0 in 0 W/m2
04:59 49.8 °F 39.4 °F 30.2 in ESE 7.3 mph 12 mph 67% 0 in 0 W/m2
05:04 49.6 °F 39.6 °F 30.2 in East 6.3 mph 12 mph 68% 0 in 0 W/m2
05:09 49.5 °F 39.4 °F 30.2 in ESE 6.8 mph 10.4 mph 68% 0 in 0 W/m2
05:14 49.3 °F 39.4 °F 30.2 in ESE 4.7 mph 10 mph 68.8% 0 in 0 W/m2
05:19 48.9 °F 39.2 °F 30.2 in ESE 4.2 mph 8.1 mph 69% 0 in 0 W/m2
05:24 48.7 °F 39.4 °F 30.2 in ESE 3.5 mph 8.1 mph 69.8% 0 in 0 W/m2
05:29 48.4 °F 39 °F 30.2 in ESE 3.8 mph 8 mph 70.1% 0 in 0 W/m2
05:34 48 °F 39 °F 30.2 in ESE 5 mph 8.1 mph 71% 0 in 0 W/m2
05:39 47.8 °F 38.8 °F 30.2 in ESE 3.7 mph 8.1 mph 71% 0 in 0 W/m2
05:44 47.7 °F 39 °F 30.2 in ESE 3 mph 8 mph 71.7% 0 in 0 W/m2
05:49 47.7 °F 39 °F 30.2 in ESE 2.8 mph 7 mph 71.8% 0 in 0 W/m2
05:54 47.5 °F 38.8 °F 30.2 in East 1.4 mph 7 mph 71.8% 0 in 0 W/m2
05:59 47.1 °F 38.7 °F 30.2 in ESE 0.9 mph 3.5 mph 72.1% 0 in 0 W/m2
06:04 46.8 °F 38.5 °F 30.2 in ESE 1.6 mph 3.5 mph 73% 0 in 0 W/m2
06:09 46.6 °F 38.5 °F 30.2 in ESE 1.2 mph 3.5 mph 73.1% 0 in 0 W/m2
06:14 46.2 °F 38.5 °F 30.2 in ESE 1.2 mph 5 mph 74% 0 in 0 W/m2
06:19 46 °F 38.5 °F 30.2 in ESE 3 mph 5 mph 74.5% 0 in 0 W/m2
06:24 46 °F 38.5 °F 30.2 in ESE 2.7 mph 5 mph 75% 0 in 0 W/m2
06:29 45.7 °F 38.5 °F 30.2 in ESE 1.8 mph 5 mph 75.6% 0 in 0 W/m2
06:34 45.5 °F 38.5 °F 30.2 in ESE 1 mph 3 mph 76.2% 0 in 5 W/m2
06:39 45.1 °F 38.5 °F 30.2 in ESE 1.1 mph 2.3 mph 77.1% 0 in 7 W/m2
06:44 45.1 °F 38.7 °F 30.2 in ESE 0.6 mph 2.3 mph 77.8% 0 in 11 W/m2
06:49 45.1 °F 38.7 °F 30.2 in East 1.5 mph 2.3 mph 78% 0 in 12 W/m2
06:54 45.1 °F 38.7 °F 30.2 in ESE 1.4 mph 2.3 mph 78.1% 0 in 16 W/m2
06:59 45.3 °F 39 °F 30.2 in ESE 1.1 mph 2.3 mph 78.3% 0 in 18 W/m2
07:04 45.7 °F 39 °F 30.2 in East 0.5 mph 2.3 mph 77% 0 in 19 W/m2
07:09 45.9 °F 39 °F 30.2 in East 0.1 mph 2 mph 77% 0 in 32 W/m2
07:14 45.9 °F 39.2 °F 30.2 in East 0.3 mph 1.2 mph 77.5% 0 in 40 W/m2
07:19 46.2 °F 39.4 °F 30.2 in East 1 mph 2.3 mph 77.2% 0 in 49 W/m2
07:24 46.8 °F 39.6 °F 30.2 in East 1.5 mph 3.5 mph 76.3% 0 in 62 W/m2
07:29 47.3 °F 39.9 °F 30.2 in ESE 2.1 mph 3.5 mph 75.2% 0 in 74 W/m2
07:34 47.7 °F 39.7 °F 30.2 in East 1.5 mph 3.5 mph 74.2% 0 in 88 W/m2
07:39 47.8 °F 40.1 °F 30.2 in ENE 1.9 mph 3.5 mph 74% 0 in 104 W/m2
07:44 48.4 °F 40.1 °F 30.2 in ENE 2.2 mph 3.5 mph 73.2% 0 in 118 W/m2
07:49 48.7 °F 40.5 °F 30.2 in East 2 mph 3.5 mph 73% 0 in 135 W/m2
07:54 49.3 °F 40.6 °F 30.2 in ENE 3 mph 7 mph 71.9% 0 in 153 W/m2
07:59 49.6 °F 40.1 °F 30.2 in East 4.3 mph 7 mph 69.7% 0 in 169 W/m2
08:04 50 °F 39.9 °F 30.2 in East 4 mph 7 mph 68.6% 0 in 186 W/m2
08:09 50.2 °F 39.9 °F 30.2 in ENE 4.3 mph 8.1 mph 67.8% 0 in 200 W/m2
08:14 50.5 °F 39.9 °F 30.2 in ENE 4.2 mph 8 mph 67% 0 in 216 W/m2
08:19 50.7 °F 39.7 °F 30.2 in ENE 4.8 mph 9 mph 66.2% 0 in 229 W/m2
08:24 50.7 °F 39.6 °F 30.2 in ENE 5.6 mph 10.4 mph 65.3% 0 in 244 W/m2
08:29 50.7 °F 39.6 °F 30.2 in ENE 6.1 mph 10 mph 65.3% 0 in 258 W/m2
08:34 51.1 °F 39.4 °F 30.2 in ENE 5.8 mph 10.4 mph 64.5% 0 in 274 W/m2
08:39 51.3 °F 39.4 °F 30.2 in East 6.7 mph 12 mph 63.8% 0 in 290 W/m2
08:44 51.4 °F 38.7 °F 30.2 in ENE 7.3 mph 12 mph 61.7% 0 in 304 W/m2
08:49 51.8 °F 39 °F 30.2 in ENE 6.4 mph 12 mph 61.5% 0 in 318 W/m2
08:54 52.2 °F 38.8 °F 30.2 in ENE 7.1 mph 12 mph 60.4% 0 in 334 W/m2
08:59 52.5 °F 39 °F 30.2 in ENE 5.2 mph 12 mph 59.9% 0 in 348 W/m2
09:04 52.7 °F 38.3 °F 30.2 in East 8.1 mph 15 mph 58% 0 in 362 W/m2
09:09 52.7 °F 37.8 °F 30.2 in East 10.3 mph 17.3 mph 56.8% 0 in 378 W/m2
09:14 52.9 °F 37.8 °F 30.2 in East 10 mph 17 mph 56.5% 0 in 392 W/m2
09:19 53.1 °F 37.6 °F 30.2 in East 11.2 mph 17.3 mph 55.6% 0 in 408 W/m2
09:24 53.1 °F 37.8 °F 30.2 in East 9.3 mph 17.3 mph 55.9% 0 in 420 W/m2
09:29 53.2 °F 37.6 °F 30.2 in East 10.1 mph 17 mph 55.2% 0 in 432 W/m2
09:34 53.4 °F 38.1 °F 30.2 in East 9.1 mph 16.1 mph 56% 0 in 450 W/m2
09:39 53.8 °F 38.1 °F 30.2 in East 10.4 mph 19 mph 55.3% 0 in 462 W/m2
09:44 54 °F 37.9 °F 30.2 in East 12.2 mph 20 mph 54.5% 0 in 476 W/m2
09:49 54.3 °F 37.9 °F 30.2 in East 9.7 mph 20 mph 53.8% 0 in 492 W/m2
09:54 54.3 °F 37.4 °F 30.2 in ESE 11.4 mph 19.6 mph 52.8% 0 in 506 W/m2
09:59 54.3 °F 37.4 °F 30.2 in East 13 mph 20 mph 52.7% 0 in 517 W/m2
10:04 54.5 °F 37 °F 30.2 in East 12.1 mph 19.6 mph 51.6% 0 in 534 W/m2
10:09 54.9 °F 37 °F 30.2 in East 11.7 mph 18.4 mph 51.3% 0 in 547 W/m2
10:14 54.9 °F 36.9 °F 30.2 in East 12.3 mph 18.4 mph 50.8% 0 in 559 W/m2
10:19 55 °F 37 °F 30.2 in ESE 9.6 mph 18 mph 50.6% 0 in 573 W/m2
10:24 55.2 °F 36.7 °F 30.2 in East 11.2 mph 18.4 mph 49.7% 0 in 584 W/m2
10:29 55.2 °F 37 °F 30.2 in East 11.4 mph 18.4 mph 50% 0 in 596 W/m2
10:34 55.4 °F 37 °F 30.2 in East 11.6 mph 18 mph 50.1% 0 in 606 W/m2
10:39 55.6 °F 37.2 °F 30.2 in East 11.2 mph 18 mph 49.9% 0 in 617 W/m2
10:44 55.9 °F 37.4 °F 30.2 in East 10.7 mph 18.4 mph 49.7% 0 in 628 W/m2
10:49 55.9 °F 37.8 °F 30.2 in East 10.3 mph 18 mph 50.4% 0 in 638 W/m2
10:54 56.3 °F 37.9 °F 30.2 in East 11.1 mph 16.1 mph 49.9% 0 in 647 W/m2
10:59 56.3 °F 38.1 °F 30.2 in East 10.3 mph 16.1 mph 50.5% 0 in 659 W/m2
11:04 56.5 °F 38.7 °F 30.2 in East 11.6 mph 16.1 mph 51.2% 0 in 666 W/m2
11:09 56.5 °F 38.7 °F 30.2 in ESE 9.5 mph 19 mph 50.9% 0 in 548 W/m2
11:14 57 °F 37.8 °F 30.2 in East 12 mph 20 mph 48.5% 0 in 547 W/m2
11:19 56.8 °F 36.7 °F 30.2 in East 10.4 mph 20 mph 46.7% 0 in 698 W/m2
11:24 57 °F 37 °F 30.2 in East 11.4 mph 18.4 mph 47.3% 0 in 710 W/m2
11:29 56.8 °F 37.4 °F 30.2 in ESE 9.8 mph 18 mph 48.1% 0 in 717 W/m2
11:34 57 °F 37.8 °F 30.2 in East 8.4 mph 14 mph 48.6% 0 in 724 W/m2
11:39 57.4 °F 37.9 °F 30.2 in ESE 9.9 mph 17.3 mph 48.1% 0 in 733 W/m2
11:44 57.6 °F 37 °F 30.2 in ESE 10.6 mph 20 mph 46.1% 0 in 742 W/m2
11:49 57.2 °F 36.7 °F 30.2 in East 6.2 mph 20 mph 46.2% 0 in 752 W/m2
11:54 57.9 °F 37.4 °F 30.2 in ESE 10.1 mph 18.4 mph 46.5% 0 in 759 W/m2
11:59 57.9 °F 37.2 °F 30.2 in East 9.1 mph 18 mph 45.9% 0 in 765 W/m2
12:04 58.3 °F 37.2 °F 30.2 in ESE 8.8 mph 16 mph 45.2% 0 in 773 W/m2
12:09 58.1 °F 37 °F 30.2 in SE 8 mph 15 mph 45.4% 0 in 779 W/m2
12:14 58.3 °F 36.5 °F 30.2 in East 11.3 mph 19.6 mph 44% 0 in 786 W/m2
12:19 58.5 °F 36.7 °F 30.2 in East 8.2 mph 20 mph 44.3% 0 in 786 W/m2
12:24 58.5 °F 36.9 °F 30.1 in ESE 7.5 mph 17 mph 44.4% 0 in 795 W/m2
12:29 58.1 °F 36.7 °F 30.1 in East 10.7 mph 18 mph 44.8% 0 in 796 W/m2
12:34 58.3 °F 37.2 °F 30.1 in ESE 10.3 mph 18.4 mph 45.2% 0 in 802 W/m2
12:39 58.8 °F 37 °F 30.1 in ENE 7.5 mph 18 mph 44.1% 0 in 803 W/m2
12:44 59.5 °F 36.9 °F 30.1 in ENE 7.1 mph 12 mph 42.8% 0 in 805 W/m2
12:49 59.4 °F 37 °F 30.1 in East 5.9 mph 13 mph 43.3% 0 in 809 W/m2
12:54 59.5 °F 36.3 °F 30.1 in East 6.6 mph 13 mph 42.1% 0 in 809 W/m2
12:59 59.5 °F 36.3 °F 30.1 in East 6.4 mph 17.3 mph 41.9% 0 in 814 W/m2
13:04 60.1 °F 37.8 °F 30.1 in ENE 6.5 mph 17 mph 43.6% 0 in 810 W/m2
13:09 59.7 °F 36.9 °F 30.1 in East 5.7 mph 18.4 mph 42.3% 0 in 814 W/m2
13:14 59.4 °F 37 °F 30.1 in ENE 7.6 mph 18 mph 43.1% 0 in 819 W/m2
13:19 59.4 °F 36.3 °F 30.1 in East 6.5 mph 13 mph 42.2% 0 in 819 W/m2
13:24 59.7 °F 37.4 °F 30.1 in East 5.2 mph 13 mph 43.3% 0 in 817 W/m2
13:29 60.3 °F 37.6 °F 30.1 in SE 5.5 mph 13 mph 42.8% 0 in 817 W/m2
13:34 59.9 °F 36.7 °F 30.1 in ESE 8.2 mph 14 mph 41.8% 0 in 819 W/m2
13:39 60.1 °F 36.1 °F 30.1 in East 7 mph 14 mph 40.9% 0 in 816 W/m2
13:44 59.7 °F 36 °F 30.1 in ESE 4.7 mph 11.5 mph 41% 0 in 819 W/m2
13:49 59.7 °F 35.1 °F 30.1 in ESE 7.8 mph 13 mph 39.6% 0 in 817 W/m2
13:54 59.7 °F 35.2 °F 30.1 in East 4.3 mph 13 mph 39.9% 0 in 816 W/m2
13:59 60.1 °F 35.2 °F 30.1 in SE 4.3 mph 10.4 mph 39.3% 0 in 812 W/m2
14:04 60.3 °F 36 °F 30.1 in ESE 8.1 mph 12 mph 40.2% 0 in 812 W/m2
14:09 60.3 °F 35.6 °F 30.1 in SE 5.2 mph 12 mph 39.7% 0 in 809 W/m2
14:14 60.8 °F 36 °F 30.1 in South 4.6 mph 12 mph 39.7% 0 in 802 W/m2
14:19 60.8 °F 35.8 °F 30.1 in SE 3.9 mph 10 mph 39.1% 0 in 798 W/m2
14:24 60.4 °F 35.6 °F 30.1 in ESE 5.5 mph 14 mph 39.4% 0 in 798 W/m2
14:29 60.4 °F 36.3 °F 30.1 in ESE 5 mph 14 mph 40.5% 0 in 788 W/m2
14:34 61.3 °F 36.7 °F 30.1 in SSE 3.4 mph 8 mph 40% 0 in 782 W/m2
14:39 61.2 °F 36.3 °F 30.1 in East 6 mph 11.5 mph 39.4% 0 in 779 W/m2
14:44 61.2 °F 36 °F 30.1 in NE 4.8 mph 12 mph 39% 0 in 770 W/m2
14:49 61.3 °F 36.3 °F 30.1 in NE 6.4 mph 13 mph 39.3% 0 in 766 W/m2
14:54 61.9 °F 36.9 °F 30.1 in NE 4.7 mph 13 mph 39.4% 0 in 766 W/m2
14:59 62.2 °F 36.7 °F 30.1 in SE 6.7 mph 14 mph 38.7% 0 in 752 W/m2
15:04 61.3 °F 36.1 °F 30.1 in ESE 6.5 mph 14 mph 39% 0 in 749 W/m2
15:09 61.5 °F 37 °F 30.1 in ESE 5.8 mph 10.4 mph 39.9% 0 in 740 W/m2
15:14 61.3 °F 36 °F 30.1 in SSE 4 mph 10 mph 38.7% 0 in 735 W/m2
15:19 61.3 °F 36.5 °F 30.1 in SE 5.2 mph 11.5 mph 39.7% 0 in 728 W/m2
15:24 62.1 °F 36.9 °F 30.1 in East 7.5 mph 12.7 mph 39.2% 0 in 722 W/m2
15:29 62.2 °F 36.9 °F 30.1 in NE 5.4 mph 13 mph 38.9% 0 in 712 W/m2
15:34 63.1 °F 37.6 °F 30.1 in NNE 3.1 mph 8 mph 38.8% 0 in 700 W/m2
15:39 62.8 °F 37 °F 30.1 in East 4.5 mph 10.4 mph 38.4% 0 in 693 W/m2
15:44 62.2 °F 36.9 °F 30.1 in East 5.3 mph 14 mph 38.9% 0 in 687 W/m2
15:49 62.2 °F 37 °F 30.1 in East 5.1 mph 14 mph 39.1% 0 in 677 W/m2
15:54 62.1 °F 36.1 °F 30.1 in East 5.5 mph 10 mph 38.2% 0 in 659 W/m2
15:59 62.1 °F 36.9 °F 30.1 in ESE 7.4 mph 13 mph 39.1% 0 in 654 W/m2
16:04 62.4 °F 36.7 °F 30.1 in SE 3.3 mph 13 mph 38.5% 0 in 642 W/m2
16:09 62.2 °F 36.1 °F 30.1 in SSE 2.7 mph 13 mph 37.8% 0 in 628 W/m2
16:14 61.7 °F 35.8 °F 30.1 in SSW 2.7 mph 9 mph 38.1% 0 in 622 W/m2
16:19 61.9 °F 36.3 °F 30.1 in ESE 3.7 mph 13 mph 38.4% 0 in 619 W/m2
16:24 62.1 °F 36.5 °F 30.1 in East 8.8 mph 14 mph 38.6% 0 in 610 W/m2
16:29 62.2 °F 36.7 °F 30.1 in ESE 7.5 mph 14 mph 38.5% 0 in 610 W/m2
16:34 61.7 °F 36.3 °F 30.1 in NE 3.3 mph 11.5 mph 38.7% 0 in 547 W/m2
16:39 61.9 °F 36.7 °F 30.1 in ESE 6.3 mph 18.4 mph 39% 0 in 418 W/m2
16:44 61.9 °F 36.7 °F 30.1 in ESE 5.4 mph 18 mph 39.3% 0 in 499 W/m2
16:49 61.5 °F 35.8 °F 30.1 in ESE 2.3 mph 13 mph 38.4% 0 in 457 W/m2
16:54 61.3 °F 36 °F 30 in South 3.9 mph 9 mph 38.7% 0 in 508 W/m2
16:59 62.1 °F 36.7 °F 30 in ESE 4.5 mph 10.4 mph 39% 0 in 512 W/m2
17:04 61.9 °F 36.1 °F 30 in SE 3.7 mph 10 mph 38.3% 0 in 504 W/m2
17:09 62.1 °F 37.2 °F 30 in ESE 5.7 mph 12 mph 39.6% 0 in 471 W/m2
17:14 61.5 °F 36.1 °F 30 in SE 4.2 mph 12 mph 38.8% 0 in 452 W/m2
17:19 61.3 °F 35.6 °F 30 in South 3.9 mph 8 mph 38.2% 0 in 408 W/m2
17:24 61.2 °F 36 °F 30 in SE 2.9 mph 11 mph 38.9% 0 in 434 W/m2
17:29 61.5 °F 36.3 °F 30 in East 5 mph 14 mph 38.9% 0 in 424 W/m2
17:34 61.5 °F 36.3 °F 30 in ESE 7.5 mph 14 mph 38.9% 0 in 392 W/m2
17:39 61.2 °F 35.8 °F 30 in ESE 8.8 mph 15 mph 38.6% 0 in 392 W/m2
17:44 61 °F 35.2 °F 30 in SE 4.1 mph 15 mph 38.1% 0 in 338 W/m2
17:49 61 °F 34.9 °F 30 in SE 3.5 mph 12 mph 37.6% 0 in 378 W/m2
17:54 61.2 °F 35.4 °F 30 in ESE 6 mph 12.7 mph 38.3% 0 in 323 W/m2
17:59 60.8 °F 34.5 °F 30 in ESE 7.6 mph 15 mph 37.4% 0 in 132 W/m2
18:04 60.6 °F 34.3 °F 30 in ESE 7.2 mph 15 mph 37.5% 0 in 322 W/m2
18:09 60.4 °F 34.3 °F 30 in SE 6.8 mph 12 mph 37.3% 0 in 318 W/m2
18:14 60.4 °F 34.2 °F 30 in ESE 5.2 mph 12 mph 37.1% 0 in 246 W/m2
18:19 59.9 °F 34 °F 30 in ESE 6.2 mph 10.4 mph 37.7% 0 in 141 W/m2
18:24 59.5 °F 34.2 °F 30 in SE 4.4 mph 10 mph 38.3% 0 in 118 W/m2
18:29 59.5 °F 34.3 °F 30 in SSE 3.5 mph 9 mph 38.7% 0 in 107 W/m2
18:34 59.2 °F 34 °F 30 in ESE 4.6 mph 8.1 mph 38.7% 0 in 114 W/m2
18:39 59.2 °F 34.3 °F 30 in SE 3.5 mph 8.1 mph 39.2% 0 in 174 W/m2
18:44 59.2 °F 33.6 °F 30 in SSE 4.2 mph 8.1 mph 38.1% 0 in 160 W/m2
18:49 59.2 °F 33.8 °F 30 in SE 4.1 mph 8.1 mph 38.1% 0 in 127 W/m2
18:54 58.8 °F 33.3 °F 30 in SE 4.5 mph 9.2 mph 38% 0 in 69 W/m2
18:59 58.5 °F 32.9 °F 30 in ESE 4.2 mph 9 mph 38% 0 in 60 W/m2
19:04 58.3 °F 32.9 °F 30 in ESE 4.7 mph 8.1 mph 38.5% 0 in 60 W/m2
19:09 57.9 °F 33.3 °F 30 in ESE 3.9 mph 8.1 mph 39.2% 0 in 56 W/m2
19:14 57.7 °F 33.1 °F 30 in ESE 3.7 mph 8.1 mph 39.3% 0 in 53 W/m2
19:19 57.6 °F 33.3 °F 30 in SE 3.9 mph 8.1 mph 39.8% 0 in 42 W/m2
19:23 57.4 °F 33.3 °F 30 in SE 3.2 mph 8 mph 40% 0 in 35 W/m2
19:49 56.7 °F 33.8 °F 30 in SE 3.5 mph 5 mph 42% 0 in 12 W/m2
19:54 56.5 °F 33.8 °F 30 in SE 3.1 mph 7 mph 42% 0 in 23 W/m2
19:59 56.3 °F 34 °F 30 in ESE 2.5 mph 7 mph 42.8% 0 in 5 W/m2
20:04 56.1 °F 34.2 °F 30 in SSE 2.2 mph 5 mph 43.4% 0 in 0 W/m2
20:09 56.1 °F 34.2 °F 30 in SSE 1.8 mph 5 mph 43.5% 0 in 0 W/m2
20:14 55.9 °F 34.3 °F 30 in SE 1.2 mph 4 mph 44% 0 in 0 W/m2
20:19 55.8 °F 34.3 °F 30 in SE 1.6 mph 4 mph 44.4% 0 in 0 W/m2
20:24 55.4 °F 34.7 °F 30 in SSE 1.2 mph 3.5 mph 45.4% 0 in 0 W/m2
20:29 55.2 °F 34.7 °F 30 in SSE 1.2 mph 4 mph 45.7% 0 in 0 W/m2
20:34 55 °F 34.7 °F 30 in SSE 1.1 mph 4 mph 46.2% 0 in 0 W/m2
20:39 54.9 °F 34.9 °F 30 in SE 1.6 mph 4 mph 46.8% 0 in 0 W/m2
20:44 54.7 °F 34.7 °F 30 in ESE 2.5 mph 4 mph 47% 0 in 0 W/m2
20:49 54.3 °F 34.5 °F 30 in SE 2.2 mph 4 mph 47% 0 in 0 W/m2
20:54 54.1 °F 34.7 °F 30 in SE 2.2 mph 4 mph 47.5% 0 in 0 W/m2
20:59 54.1 °F 34.5 °F 30 in SE 2.5 mph 5 mph 47.4% 0 in 0 W/m2
21:04 54 °F 34.3 °F 30 in SE 2.2 mph 5 mph 47.4% 0 in 0 W/m2
21:09 53.8 °F 34.5 °F 30 in ESE 2.2 mph 5 mph 47.7% 0 in 0 W/m2
21:14 53.6 °F 34.3 °F 30 in ESE 2 mph 4 mph 48.1% 0 in 0 W/m2
21:19 53.1 °F 34.5 °F 30.1 in ESE 1.7 mph 4 mph 49% 0 in 0 W/m2
21:24 52.9 °F 34.2 °F 30.1 in ESE 1.7 mph 3.5 mph 49% 0 in 0 W/m2
21:29 52.9 °F 34.3 °F 30.1 in ESE 1.4 mph 3.5 mph 49.3% 0 in 0 W/m2
21:34 52.5 °F 34.7 °F 30.1 in ESE 0.5 mph 3 mph 50.5% 0 in 0 W/m2
21:39 52.2 °F 35.2 °F 30.1 in ESE 0.3 mph 2 mph 52.4% 0 in 0 W/m2
21:44 51.8 °F 35.1 °F 30.1 in ESE 0.7 mph 2.3 mph 52.6% 0 in 0 W/m2
21:49 51.8 °F 34.7 °F 30.1 in ESE 1.1 mph 2.3 mph 51.8% 0 in 0 W/m2
21:54 51.8 °F 34.7 °F 30.1 in ESE 1.2 mph 2.3 mph 51.8% 0 in 0 W/m2
21:59 51.6 °F 35.1 °F 30.1 in ESE 0.9 mph 2.3 mph 53% 0 in 0 W/m2
22:04 51.1 °F 35.2 °F 30.1 in ESE 0.9 mph 2.3 mph 54.4% 0 in 0 W/m2
22:09 51.3 °F 35.1 °F 30.1 in ESE 0.2 mph 2 mph 53.6% 0 in 0 W/m2
22:14 51.3 °F 34.9 °F 30.1 in ESE 0.1 mph 1 mph 53.4% 0 in 0 W/m2
22:19 51.1 °F 34.9 °F 30.1 in ESE 0.7 mph 1.2 mph 53.8% 0 in 0 W/m2
22:24 51.1 °F 35.1 °F 30.1 in ESE 0.4 mph 1.2 mph 54.3% 0 in 0 W/m2
22:29 50.7 °F 35.4 °F 30.1 in Calm   1 mph 55.6% 0 in 0 W/m2
22:34 50.4 °F 35.4 °F 30.1 in Calm     56.4% 0 in 0 W/m2
22:39 50 °F 35.6 °F 30.1 in Calm     57.4% 0 in 0 W/m2
22:44 49.8 °F 35.6 °F 30.1 in Calm     58% 0 in 0 W/m2
22:49 49.5 °F 36 °F 30.1 in Calm     59.7% 0 in 0 W/m2
22:54 49.3 °F 36.3 °F 30.1 in ESE 0.4 mph 1.2 mph 60.7% 0 in 0 W/m2
22:59 49.1 °F 36.1 °F 30.1 in ESE 0.1 mph 1.2 mph 61% 0 in 0 W/m2
23:04 49.1 °F 35.6 °F 30.1 in ESE 0.1 mph 1.2 mph 59.6% 0 in 0 W/m2
23:09 49.1 °F 35.8 °F 30.1 in ENE 0.4 mph 2.3 mph 60% 0 in 0 W/m2
23:14 49.1 °F 35.4 °F 30.1 in ENE 1.2 mph 2.3 mph 59.2% 0 in 0 W/m2
23:19 48.9 °F 35.6 °F 30.1 in NE 1.4 mph 2.3 mph 59.7% 0 in 0 W/m2
23:24 48.9 °F 35.8 °F 30.1 in NE 1.3 mph 2.3 mph 60.3% 0 in 0 W/m2
23:29 48.7 °F 36 °F 30.1 in NE 1.1 mph 2.3 mph 61% 0 in 0 W/m2
23:34 48.6 °F 36 °F 30.1 in NE 0.7 mph 2.3 mph 61.3% 0 in 0 W/m2
23:39 48 °F 35.8 °F 30.1 in NE 0.2 mph 2 mph 62% 0 in 0 W/m2
23:44 47.5 °F 35.6 °F 30.1 in Calm   1.2 mph 63.2% 0 in 0 W/m2
23:49 47.3 °F 35.8 °F 30.1 in NE 1.1 mph 3 mph 64.1% 0 in 0 W/m2
23:59 47.7 °F 35.6 °F 30.1 in NE 1.4 mph 3 mph 62.8% 0 in 0 W/m2
Stazione Meteorologica MeteoMincio Rivalta s/M (MN)
Con i complimenti di Weather Underground - 4 mb


METEO PILLOLE
Maggior quantità di pioggia caduta in 12 ore
Foc-Foc (2290 m) - Isola di Réunion
Tra il 7 e l'8 gennaio 1966 caddero 1144mm di pioggia.

Do NOT follow this link or you will be banned from the site!